createdAt,value
2018-12-12T00:01:25.039Z,95853.92
2018-12-12T00:04:29.487Z,95852.23
2018-12-12T00:07:24.374Z,95860.12
2018-12-12T00:09:54.900Z,95857.91
2018-12-12T00:12:25.358Z,95849.53
2018-12-12T00:15:17.658Z,95843.50
2018-12-12T00:18:23.157Z,95843.73
2018-12-12T00:20:55.536Z,95843.66
2018-12-12T00:23:24.991Z,95847.25
2018-12-12T00:26:23.196Z,95841.39
2018-12-12T00:29:18.998Z,95840.44
2018-12-12T00:32:00.469Z,95840.25
2018-12-12T00:34:28.997Z,95839.05
2018-12-12T00:37:05.747Z,95834.96
2018-12-12T00:39:35.199Z,95831.84
2018-12-12T00:42:24.867Z,95838.45
2018-12-12T00:45:06.727Z,95835.52
2018-12-12T00:47:35.287Z,95834.77
2018-12-12T00:50:08.421Z,95846.00
2018-12-12T00:52:37.844Z,95843.88
2018-12-12T00:55:10.708Z,95844.19
2018-12-12T00:57:39.255Z,95848.77
2018-12-12T01:00:09.787Z,95845.39
2018-12-12T01:02:38.337Z,95844.72
2018-12-12T01:05:22.290Z,95846.25
2018-12-12T01:08:23.588Z,95845.28
2018-12-12T01:10:52.103Z,95847.87
2018-12-12T01:13:24.212Z,95848.19
2018-12-12T01:16:00.019Z,95851.28
2018-12-12T01:18:28.615Z,95853.11
2018-12-12T01:21:22.397Z,95855.64
2018-12-12T01:24:05.900Z,95860.02
2018-12-12T01:26:34.581Z,95861.91
2018-12-12T01:29:18.000Z,95869.30
2018-12-12T01:31:59.914Z,95869.19
2018-12-12T01:34:28.472Z,95873.30
2018-12-12T01:36:59.940Z,95870.70
2018-12-12T01:39:48.461Z,95872.88
2018-12-12T01:42:24.969Z,95871.20
2018-12-12T01:44:53.501Z,95870.69
2018-12-12T01:47:22.036Z,95877.54
2018-12-12T01:49:50.548Z,95872.64
2018-12-12T01:52:32.669Z,95872.20
2018-12-12T01:55:01.209Z,95870.09
2018-12-12T01:57:43.078Z,95867.06
2018-12-12T02:00:24.073Z,95871.40
2018-12-12T02:02:56.367Z,95875.92
2018-12-12T02:05:35.738Z,95870.97
2018-12-12T02:08:04.275Z,95869.27
2018-12-12T02:10:47.875Z,95869.77
2018-12-12T02:13:48.244Z,95869.00
2018-12-12T02:16:26.765Z,95868.95
2018-12-12T02:18:55.200Z,95868.33
2018-12-12T02:21:28.947Z,95870.74
2018-12-12T02:23:57.467Z,95867.05
2018-12-12T02:26:35.738Z,95867.25
2018-12-12T02:29:04.246Z,95857.19
2018-12-12T02:31:48.448Z,95864.91
2018-12-12T02:34:16.979Z,95858.70
2018-12-12T02:36:45.592Z,95850.94
2018-12-12T02:39:14.046Z,95844.19
2018-12-12T02:41:48.372Z,95846.20
2018-12-12T02:44:38.731Z,95843.70
2018-12-12T02:47:08.165Z,95837.57
2018-12-12T02:49:51.989Z,95836.32
2018-12-12T02:52:47.469Z,95834.14
2018-12-12T02:55:18.141Z,95833.70
2018-12-12T02:57:48.576Z,95831.19
2018-12-12T03:00:17.108Z,95836.26
2018-12-12T03:02:45.631Z,95847.91
2018-12-12T03:05:14.233Z,95850.48
2018-12-12T03:07:42.757Z,95840.81
2018-12-12T03:10:11.287Z,95836.92
2018-12-12T03:12:39.853Z,95838.58
2018-12-12T03:15:39.305Z,95836.80
2018-12-12T03:18:41.929Z,95843.56
2018-12-12T03:21:10.472Z,95849.52
2018-12-12T03:23:46.117Z,95845.05
2018-12-12T03:26:14.622Z,95844.67
2018-12-12T03:28:43.165Z,95849.34
2018-12-12T03:31:11.702Z,95841.98
2018-12-12T03:33:40.204Z,95845.24
2018-12-12T03:36:08.738Z,95844.09
2018-12-12T03:38:37.255Z,95842.95
2018-12-12T03:41:05.772Z,95838.73
2018-12-12T03:43:46.796Z,95833.53
2018-12-12T03:46:17.355Z,95832.14
2018-12-12T03:48:46.771Z,95826.14
2018-12-12T03:51:27.323Z,95822.84
2018-12-12T03:53:55.840Z,95825.98
2018-12-12T03:56:25.325Z,95820.23
2018-12-12T03:58:53.852Z,95828.11
2018-12-12T04:01:22.391Z,95825.59
2018-12-12T04:03:50.917Z,95819.52
2018-12-12T04:06:19.462Z,95824.35
2018-12-12T04:08:48.010Z,95828.89
2018-12-12T04:11:21.837Z,95829.91
2018-12-12T04:13:50.362Z,95830.13
2018-12-12T04:16:22.308Z,95835.62
2018-12-12T04:18:50.953Z,95825.14
2018-12-12T04:21:27.572Z,95825.18
2018-12-12T04:23:58.327Z,95831.20
2018-12-12T04:26:45.550Z,95825.63
2018-12-12T04:29:24.733Z,95824.52
2018-12-12T04:31:53.265Z,95820.92
2018-12-12T04:34:35.912Z,95823.33
2018-12-12T04:37:04.520Z,95819.95
2018-12-12T04:39:33.166Z,95824.94
2018-12-12T04:42:01.716Z,95829.17
2018-12-12T04:44:53.183Z,95828.98
2018-12-12T04:47:28.054Z,95823.70
2018-12-12T04:49:56.563Z,95823.39
2018-12-12T04:52:32.700Z,95820.26
2018-12-12T04:55:01.215Z,95823.08
2018-12-12T04:57:34.162Z,95826.40
2018-12-12T05:00:02.720Z,95827.20
2018-12-12T05:02:32.308Z,95832.24
2018-12-12T05:05:01.756Z,95834.95
2018-12-12T05:07:47.709Z,95836.99
2018-12-12T05:10:18.801Z,95840.24
2018-12-12T05:12:47.483Z,95839.48
2018-12-12T05:15:16.023Z,95834.84
2018-12-12T05:17:47.709Z,95840.73
2018-12-12T05:20:21.379Z,95841.87
2018-12-12T05:22:49.925Z,95839.27
2018-12-12T05:25:18.451Z,95843.07
2018-12-12T05:27:47.092Z,95840.34
2018-12-12T05:30:32.735Z,95841.39
2018-12-12T05:33:01.893Z,95837.70
2018-12-12T05:35:31.695Z,95834.19
2018-12-12T05:38:00.817Z,95841.75
2018-12-12T05:40:46.195Z,95839.23
2018-12-12T05:43:45.588Z,95837.82
2018-12-12T05:46:23.896Z,95837.72
2018-12-12T05:48:52.434Z,95841.94
2018-12-12T05:51:28.439Z,95841.85
2018-12-12T05:53:56.967Z,95838.04
2018-12-12T05:56:42.595Z,95836.42
2018-12-12T05:59:11.562Z,95841.52
2018-12-12T06:01:47.781Z,95845.08
2018-12-12T06:04:33.308Z,95839.06
2018-12-12T06:07:01.844Z,95840.97
2018-12-12T06:09:40.935Z,95845.36
2018-12-12T06:12:33.436Z,95846.34
2018-12-12T06:15:01.974Z,95848.20
2018-12-12T06:17:31.531Z,95846.86
2018-12-12T06:20:00.071Z,95852.17
2018-12-12T06:22:37.844Z,95854.42
2018-12-12T06:25:04.468Z,95857.52
2018-12-12T06:27:33.587Z,95855.19
2018-12-12T06:30:02.154Z,95856.91
2018-12-12T06:32:47.684Z,95853.45
2018-12-12T06:35:25.608Z,95859.92
2018-12-12T06:37:55.048Z,95863.03
2018-12-12T06:40:23.598Z,95861.40
2018-12-12T06:42:55.775Z,95863.67
2018-12-12T06:45:32.553Z,95865.27
2018-12-12T06:48:02.041Z,95863.16
2018-12-12T06:50:32.507Z,95862.71
2018-12-12T06:53:01.071Z,95866.33
2018-12-12T06:55:46.963Z,95867.19
2018-12-12T06:58:15.504Z,95867.19
2018-12-12T07:00:58.232Z,95862.75
2018-12-12T07:03:41.914Z,95867.67
2018-12-12T07:06:29.690Z,95868.77
2018-12-12T07:09:13.355Z,95874.43
2018-12-12T07:12:10.837Z,95878.33
2018-12-12T07:14:39.386Z,95876.49
2018-12-12T07:17:18.790Z,95877.21
2018-12-12T07:19:48.245Z,95877.71
2018-12-12T07:22:17.805Z,95882.09
2018-12-12T07:24:57.995Z,95880.54
2018-12-12T07:27:26.532Z,95878.79
2018-12-12T07:30:16.994Z,95879.95
2018-12-12T07:32:45.566Z,95878.83
2018-12-12T07:35:14.115Z,95876.02
2018-12-12T07:37:48.560Z,95878.66
2018-12-12T07:40:17.997Z,95880.11
2018-12-12T07:42:54.711Z,95879.24
2018-12-12T07:45:24.168Z,95883.23
2018-12-12T07:47:54.690Z,95880.62
2018-12-12T07:52:18.611Z,95880.24
2018-12-12T07:54:47.671Z,95876.26
2018-12-12T07:57:16.734Z,95873.32
2018-12-12T07:59:45.842Z,95872.59
2018-12-12T08:02:14.899Z,95872.14
2018-12-12T08:07:19.527Z,95873.45
2018-12-12T08:12:24.376Z,95868.42
2018-12-12T08:14:53.419Z,95868.33
2018-12-12T08:17:22.451Z,95866.75
2018-12-12T08:19:51.505Z,95871.44
2018-12-12T08:24:55.781Z,95871.16
2018-12-12T08:27:24.860Z,95876.84
2018-12-12T08:29:53.939Z,95877.89
2018-12-12T08:32:22.978Z,95877.36
2018-12-12T08:34:52.035Z,95881.37
2018-12-12T08:37:21.126Z,95878.15
2018-12-12T08:39:50.233Z,95884.27
2018-12-12T08:42:19.283Z,95880.98
2018-12-12T08:44:49.283Z,95878.49
2018-12-12T08:47:18.379Z,95882.45
2018-12-12T08:49:47.436Z,95880.98
2018-12-12T08:52:16.491Z,95885.03
2018-12-12T08:57:22.843Z,95881.59
2018-12-12T08:59:51.995Z,95888.05
2018-12-12T09:02:21.039Z,95887.33
2018-12-12T09:04:50.094Z,95890.85
2018-12-12T09:07:19.172Z,95886.50
2018-12-12T09:09:48.215Z,95894.75
2018-12-12T09:14:53.017Z,95891.74
2018-12-12T09:17:22.226Z,95886.94
2018-12-12T09:19:51.254Z,95889.48
2018-12-12T09:22:20.332Z,95889.41
2018-12-12T09:24:49.446Z,95890.00
2018-12-12T09:27:18.503Z,95888.45
2018-12-12T09:29:48.534Z,95885.23
2018-12-12T09:32:17.538Z,95885.86
2018-12-12T09:34:46.582Z,95890.20
2018-12-12T09:37:16.627Z,95888.77
2018-12-12T09:39:46.629Z,95890.92
2018-12-12T09:42:15.720Z,95888.68
2018-12-12T09:44:44.766Z,95886.97
2018-12-12T09:47:13.836Z,95885.75
2018-12-12T09:49:42.890Z,95885.30
2018-12-12T09:52:12.457Z,95878.95
2018-12-12T09:54:41.514Z,95880.95
2018-12-12T09:57:10.570Z,95882.73
2018-12-12T09:59:39.649Z,95885.86
2018-12-12T10:02:08.706Z,95884.31
2018-12-12T10:04:37.737Z,95880.01
2018-12-12T10:07:07.532Z,95880.99
2018-12-12T10:09:36.555Z,95877.98
2018-12-12T10:12:09.347Z,95872.80
2018-12-12T10:14:38.936Z,95873.06
2018-12-12T10:19:44.920Z,95880.80
2018-12-12T10:22:13.963Z,95875.88
2018-12-12T10:27:21.688Z,95869.97
2018-12-12T10:29:50.736Z,95867.13
2018-12-12T10:32:20.294Z,95866.86
2018-12-12T10:34:49.390Z,95865.80
2018-12-12T10:37:19.383Z,95865.61
2018-12-12T10:39:48.433Z,95860.73
2018-12-12T10:42:17.888Z,95857.73
2018-12-12T10:44:47.187Z,95850.66
2018-12-12T10:47:16.239Z,95857.71
2018-12-12T10:49:45.283Z,95845.81
2018-12-12T10:52:18.700Z,95842.77
2018-12-12T10:54:47.734Z,95841.78
2018-12-12T10:57:16.786Z,95843.48
2018-12-12T10:59:45.849Z,95843.59
2018-12-12T11:02:21.865Z,95839.60
2018-12-12T11:04:50.907Z,95838.39
2018-12-12T11:07:19.955Z,95838.80
2018-12-12T11:09:49.875Z,95836.58
2018-12-12T11:12:18.047Z,95839.77
2018-12-12T11:14:53.829Z,95839.78
2018-12-12T11:19:58.550Z,95836.05
2018-12-12T11:22:27.589Z,95838.95
2018-12-12T11:24:56.642Z,95831.83
2018-12-12T11:27:25.718Z,95831.78
2018-12-12T11:29:55.391Z,95838.56
2018-12-12T11:32:24.652Z,95828.53
2018-12-12T11:34:53.690Z,95827.64
2018-12-12T11:37:22.723Z,95821.30
2018-12-12T11:39:52.060Z,95820.34
2018-12-12T11:42:21.356Z,95824.39
2018-12-12T11:44:50.618Z,95821.16
2018-12-12T11:47:19.679Z,95820.15
2018-12-12T11:49:48.728Z,95818.63
2018-12-12T11:52:17.773Z,95824.21
2018-12-12T11:54:47.529Z,95817.47
2018-12-12T11:57:16.570Z,95815.84
2018-12-12T11:59:46.647Z,95812.81
2018-12-12T12:02:16.908Z,95810.84
2018-12-12T12:04:46.003Z,95803.66
2018-12-12T12:07:15.044Z,95805.77
2018-12-12T12:12:22.777Z,95803.59
2018-12-12T12:14:52.271Z,95801.81
2018-12-12T12:17:21.313Z,95798.66
2018-12-12T12:22:31.180Z,95799.92
2018-12-12T12:27:39.474Z,95800.17
2018-12-12T12:30:08.531Z,95795.43
2018-12-12T12:32:37.566Z,95791.80
2018-12-12T12:35:06.615Z,95794.62
2018-12-12T12:37:35.708Z,95790.30
2018-12-12T12:40:05.818Z,95785.18
2018-12-12T12:42:33.828Z,95790.56
2018-12-12T12:45:02.870Z,95785.84
2018-12-12T12:47:31.916Z,95786.95
2018-12-12T12:50:00.961Z,95784.98
2018-12-12T12:52:31.962Z,95781.36
2018-12-12T12:55:01.013Z,95776.39
2018-12-12T12:57:30.059Z,95779.77
2018-12-12T12:59:59.112Z,95782.42
2018-12-12T13:02:28.143Z,95778.51
2018-12-12T13:04:57.226Z,95779.78
2018-12-12T13:07:26.259Z,95775.17
2018-12-12T13:10:11.549Z,95771.54
2018-12-12T13:12:36.587Z,95769.03
2018-12-12T13:15:05.666Z,95774.35
2018-12-12T13:20:09.899Z,95763.87
2018-12-12T13:25:14.690Z,95764.14
2018-12-12T13:30:18.976Z,95757.19
2018-12-12T13:32:48.108Z,95756.43
2018-12-12T13:35:18.094Z,95751.89
2018-12-12T13:37:51.358Z,95751.94
2018-12-12T13:40:20.415Z,95748.02
2018-12-12T13:42:49.545Z,95749.30
2018-12-12T13:45:18.702Z,95746.63
2018-12-12T13:50:26.378Z,95750.45
2018-12-12T13:52:55.495Z,95746.59
2018-12-12T13:55:24.652Z,95749.89
2018-12-12T13:57:53.583Z,95747.05
2018-12-12T14:00:22.625Z,95747.59
2018-12-12T14:05:26.844Z,95740.53
2018-12-12T14:07:55.893Z,95742.52
2018-12-12T14:10:24.927Z,95738.80
2018-12-12T14:12:53.979Z,95737.05
2018-12-12T14:15:23.050Z,95734.06
2018-12-12T14:20:27.296Z,95734.28
2018-12-12T14:22:56.354Z,95732.73
2018-12-12T14:25:25.386Z,95735.93
2018-12-12T14:27:54.495Z,95729.88
2018-12-12T14:30:24.427Z,95737.22
2018-12-12T14:32:53.450Z,95734.30
2018-12-12T14:35:22.523Z,95739.03
2018-12-12T14:37:51.566Z,95730.42
2018-12-12T14:40:20.797Z,95732.33
2018-12-12T14:42:50.786Z,95733.20
2018-12-12T14:45:19.843Z,95726.70
2018-12-12T14:47:48.890Z,95726.05
2018-12-12T14:50:17.961Z,95723.12
2018-12-12T14:55:27.132Z,95721.02
2018-12-12T15:00:31.422Z,95718.77
2018-12-12T15:05:36.685Z,95717.33
2018-12-12T15:08:05.752Z,95719.61
2018-12-12T15:10:34.810Z,95716.54
2018-12-12T15:15:39.602Z,95707.85
2018-12-12T15:18:08.714Z,95708.83
2018-12-12T15:20:37.754Z,95711.09
2018-12-12T15:25:42.539Z,95714.29
2018-12-12T15:28:11.597Z,95703.57
2018-12-12T15:30:41.112Z,95701.98
2018-12-12T15:33:09.723Z,95702.92
2018-12-12T15:35:51.137Z,95702.98
2018-12-12T15:38:20.407Z,95700.85
2018-12-12T15:40:49.449Z,95700.94
2018-12-12T15:43:18.487Z,95704.41
2018-12-12T15:45:47.540Z,95702.34
2018-12-12T15:48:16.643Z,95698.47
2018-12-12T15:50:45.697Z,95698.93
2018-12-12T15:53:14.752Z,95696.92
2018-12-12T15:55:43.804Z,95696.14
2018-12-12T15:58:13.835Z,95708.08
2018-12-12T16:00:42.896Z,95703.23
2018-12-12T16:03:11.951Z,95695.32
2018-12-12T16:05:41.013Z,95691.33
2018-12-12T16:08:10.066Z,95702.30
2018-12-12T16:13:17.769Z,95691.70
2018-12-12T16:15:46.839Z,95695.19
2018-12-12T16:18:17.005Z,95702.22
2018-12-12T16:20:46.036Z,95699.63
2018-12-12T16:25:50.883Z,95709.50
2018-12-12T16:28:19.975Z,95704.90
2018-12-12T16:30:49.041Z,95706.42
2018-12-12T16:33:18.070Z,95705.68
2018-12-12T16:35:47.154Z,95708.02
2018-12-12T16:38:16.203Z,95705.60
2018-12-12T16:40:45.257Z,95704.59
2018-12-12T16:43:14.383Z,95707.13
2018-12-12T16:45:43.415Z,95699.08
2018-12-12T16:48:13.447Z,95698.03
2018-12-12T16:50:42.494Z,95698.66
2018-12-12T16:53:11.534Z,95698.27
2018-12-12T16:55:40.590Z,95696.84
2018-12-12T16:58:09.639Z,95695.82
2018-12-12T17:00:38.690Z,95696.56
2018-12-12T17:03:07.760Z,95695.89
2018-12-12T17:05:36.806Z,95692.31
2018-12-12T17:08:05.900Z,95695.68
2018-12-12T17:10:34.940Z,95692.65
2018-12-12T17:13:04.024Z,95696.55
2018-12-12T17:15:36.909Z,95694.97
2018-12-12T17:18:05.945Z,95691.72
2018-12-12T17:20:35.895Z,95690.09
2018-12-12T17:25:41.186Z,95689.66
2018-12-12T17:28:10.237Z,95686.84
2018-12-12T17:30:39.295Z,95685.65
2018-12-12T17:33:08.418Z,95682.83
2018-12-12T17:35:37.475Z,95682.13
2018-12-12T17:38:06.547Z,95684.55
2018-12-12T17:40:35.621Z,95682.47
2018-12-12T17:43:04.646Z,95678.05
2018-12-12T17:45:33.707Z,95677.90
2018-12-12T17:48:02.762Z,95676.09
2018-12-12T17:50:31.814Z,95678.48
2018-12-12T17:53:00.870Z,95677.27
2018-12-12T17:55:30.319Z,95677.02
2018-12-12T17:58:00.314Z,95670.92
2018-12-12T18:00:29.863Z,95672.91
2018-12-12T18:05:34.681Z,95677.61
2018-12-12T18:08:03.799Z,95677.98
2018-12-12T18:10:33.800Z,95676.16
2018-12-12T18:13:02.863Z,95675.85
2018-12-12T18:15:32.095Z,95671.18
2018-12-12T18:18:01.128Z,95674.57
2018-12-12T18:20:30.163Z,95675.93
2018-12-12T18:22:59.212Z,95675.91
2018-12-12T18:25:28.265Z,95676.12
2018-12-12T18:27:57.330Z,95675.56
2018-12-12T18:30:27.328Z,95676.34
2018-12-12T18:32:56.516Z,95678.30
2018-12-12T18:35:25.404Z,95672.60
2018-12-12T18:37:54.452Z,95669.11
2018-12-12T18:40:23.486Z,95668.61
2018-12-12T18:42:52.542Z,95672.03
2018-12-12T18:45:21.592Z,95673.01
2018-12-12T18:47:50.662Z,95670.84
2018-12-12T18:50:19.680Z,95669.09
2018-12-12T18:52:48.730Z,95666.15
2018-12-12T18:55:17.809Z,95671.00
2018-12-12T18:57:46.850Z,95665.72
2018-12-12T19:00:15.904Z,95667.35
2018-12-12T19:02:44.994Z,95663.89
2018-12-12T19:05:14.030Z,95660.03
2018-12-12T19:07:43.083Z,95663.91
2018-12-12T19:10:12.136Z,95666.74
2018-12-12T19:12:41.218Z,95660.70
2018-12-12T19:15:10.309Z,95665.04
2018-12-12T19:17:39.402Z,95665.44
2018-12-12T19:20:08.446Z,95665.61
2018-12-12T19:22:37.529Z,95664.83
2018-12-12T19:25:06.578Z,95665.91
2018-12-12T19:27:36.519Z,95658.86
2018-12-12T19:30:05.573Z,95661.52
2018-12-12T19:32:36.555Z,95654.63
2018-12-12T19:35:05.598Z,95658.85
2018-12-12T19:37:34.632Z,95664.81
2018-12-12T19:40:03.715Z,95654.39
2018-12-12T19:42:32.754Z,95655.87
2018-12-12T19:45:01.816Z,95655.06
2018-12-12T19:47:30.857Z,95653.38
2018-12-12T19:50:08.834Z,95655.27
2018-12-12T19:52:38.407Z,95651.22
2018-12-12T19:55:07.434Z,95651.11
2018-12-12T19:57:36.485Z,95643.58
2018-12-12T20:00:05.573Z,95649.72
2018-12-12T20:02:34.643Z,95645.38
2018-12-12T20:05:04.703Z,95647.59
2018-12-12T20:07:36.638Z,95639.96
2018-12-12T20:10:05.690Z,95642.23
2018-12-12T20:12:35.743Z,95642.98
2018-12-12T20:15:05.491Z,95636.08
2018-12-12T20:17:33.940Z,95639.21
2018-12-12T20:20:03.010Z,95639.38
2018-12-12T20:22:32.083Z,95635.02
2018-12-12T20:25:01.847Z,95634.63
2018-12-12T20:27:30.965Z,95638.95
2018-12-12T20:30:00.012Z,95633.13
2018-12-12T20:32:29.068Z,95629.92
2018-12-12T20:34:58.183Z,95632.94
2018-12-12T20:37:27.219Z,95631.42
2018-12-12T20:39:56.296Z,95625.00
2018-12-12T20:42:25.381Z,95621.48
2018-12-12T20:44:55.374Z,95621.31
2018-12-12T20:47:25.360Z,95621.72
2018-12-12T20:50:04.328Z,95618.08
2018-12-12T20:52:35.799Z,95617.17
2018-12-12T20:55:05.797Z,95622.84
2018-12-12T20:57:34.851Z,95612.08
2018-12-12T21:00:09.633Z,95613.53
2018-12-12T21:02:41.242Z,95609.34
2018-12-12T21:07:52.747Z,95605.86
2018-12-12T21:10:21.938Z,95606.80
2018-12-12T21:12:53.288Z,95601.31
2018-12-12T21:15:26.861Z,95602.64
2018-12-12T21:20:31.721Z,95601.72
2018-12-12T21:23:00.926Z,95600.34
2018-12-12T21:25:30.060Z,95601.22
2018-12-12T21:27:59.221Z,95600.50
2018-12-12T21:30:28.351Z,95596.47
2018-12-12T21:32:57.420Z,95602.33
2018-12-12T21:35:27.559Z,95600.55
2018-12-12T21:37:56.712Z,95594.48
2018-12-12T21:40:25.860Z,95592.45
2018-12-12T21:42:54.948Z,95590.22
2018-12-12T21:45:24.068Z,95586.50
2018-12-12T21:47:55.074Z,95582.23
2018-12-12T21:50:24.161Z,95584.17
2018-12-12T21:52:53.348Z,95577.38
2018-12-12T21:55:22.383Z,95576.20
2018-12-12T21:57:55.522Z,95580.77
2018-12-12T22:00:24.617Z,95579.00
2018-12-12T22:02:57.469Z,95578.19
2018-12-12T22:05:26.533Z,95578.68
2018-12-12T22:07:55.646Z,95574.77
2018-12-12T22:10:25.126Z,95576.18
2018-12-12T22:12:54.296Z,95579.20
2018-12-12T22:15:23.603Z,95574.80
2018-12-12T22:17:52.822Z,95572.16
2018-12-12T22:20:21.916Z,95571.17
2018-12-12T22:22:51.035Z,95568.31
2018-12-12T22:25:21.003Z,95570.48
2018-12-12T22:27:50.152Z,95565.33
2018-12-12T22:30:19.213Z,95565.36
2018-12-12T22:32:48.277Z,95561.05
2018-12-12T22:35:17.738Z,95558.03
2018-12-12T22:37:46.967Z,95563.41
2018-12-12T22:40:16.124Z,95566.17
2018-12-12T22:42:45.214Z,95564.68
2018-12-12T22:45:14.730Z,95564.44
2018-12-12T22:47:44.844Z,95557.87
2018-12-12T22:50:14.135Z,95556.95
2018-12-12T22:52:44.234Z,95551.27
2018-12-12T22:55:15.299Z,95553.16
2018-12-12T22:57:44.502Z,95543.72
2018-12-12T23:00:13.715Z,95542.47
2018-12-12T23:02:42.948Z,95545.03
2018-12-12T23:05:12.044Z,95539.88
2018-12-12T23:07:41.226Z,95534.48
2018-12-12T23:10:11.217Z,95535.45
2018-12-12T23:12:40.337Z,95533.96
2018-12-12T23:15:09.487Z,95531.36
2018-12-12T23:17:39.439Z,95528.11
2018-12-12T23:20:08.496Z,95522.37
2018-12-12T23:22:37.559Z,95527.09
2018-12-12T23:25:08.151Z,95523.40
2018-12-12T23:30:12.946Z,95518.39
2018-12-12T23:32:42.013Z,95515.23
2018-12-12T23:35:14.258Z,95512.34
2018-12-12T23:37:45.787Z,95509.89
2018-12-12T23:40:16.792Z,95512.14
2018-12-12T23:42:47.821Z,95507.85
2018-12-12T23:45:16.920Z,95507.93
2018-12-12T23:47:46.003Z,95508.80
2018-12-12T23:50:15.056Z,95501.16
2018-12-12T23:52:44.108Z,95500.84
2018-12-12T23:57:49.450Z,95490.39
